»·PEaware :: SWA572 KBUR-KSJC

SWA572 :: KBUR-KSJC

FLIGHT INFORMATION

Flight Status: Arrived
Operator:
Southwest Airlines
More flights by this operator :: More flights under this callsign
Pilot: Anonymous 8799 (8799)
Aircraft: BOEING 737-800
(B738)
More flights by this aircraft type
Origin: KBUR Bob Hope-Burbank
United States
Destination: KSJC Mineta San Jose Intl
United States
More flights between these airports :: More routes between these airports
Route: +OROSZ2 COREZ MAKRS TROXX SILCN4
File this flight plan on PilotEdge
Remarks:
Altitude:
(Current/Filed)
300ft
Speed:
(Current/Filed)
420kts
Departed: 08-Oct-18 08:26 AM
Arrived: 08-Oct-18 09:19 AM
Distance/Time
Traveled:
257nm/0:52
Distance/Time
To Go:
Arrived

Flight Plot

Page will automatically refresh every two minutes.

Flight plan parsing failed; only flown route is shown


Map Options




Map Legend


Flown Route
Filed Route
Departure Airport
Arrival Airport
Navaid (VOR, NDB)
Fix

Horizontal Profiles

Position Reports

Time Latitude Longitude Heading Altitude Ground
Speed
08-Oct-18 07:55 34.196654 -118.349348 179 738ft 0kts
08-Oct-18 07:56 34.196654 -118.349348 179 738ft 0kts
08-Oct-18 07:57 34.196654 -118.349348 179 738ft 0kts
08-Oct-18 07:58 34.196654 -118.349348 179 738ft 0kts
08-Oct-18 07:59 34.196654 -118.349348 179 738ft 0kts
08-Oct-18 08:00 34.196654 -118.349348 179 738ft 0kts
08-Oct-18 08:01 34.196654 -118.349348 179 738ft 0kts
08-Oct-18 08:02 34.196654 -118.349348 179 738ft 0kts
08-Oct-18 08:03 34.196654 -118.349348 179 738ft 0kts
08-Oct-18 08:04 34.196654 -118.349348 179 738ft 0kts
08-Oct-18 08:05 34.196654 -118.349348 179 738ft 0kts
08-Oct-18 08:06 34.196654 -118.349348 179 738ft 0kts
08-Oct-18 08:07 34.196654 -118.349348 179 738ft 0kts
08-Oct-18 08:08 34.196654 -118.349348 179 738ft 0kts
08-Oct-18 08:09 34.196654 -118.349348 179 738ft 0kts
08-Oct-18 08:10 34.196654 -118.349348 179 738ft 0kts
08-Oct-18 08:11 34.196654 -118.349348 179 738ft 0kts
08-Oct-18 08:12 34.196655 -118.349348 179 738ft 0kts
08-Oct-18 08:13 34.196655 -118.349348 179 738ft 0kts
08-Oct-18 08:14 34.197061 -118.349375 175 738ft 1kts
08-Oct-18 08:15 34.197176 -118.349255 242 738ft 0kts
08-Oct-18 08:16 34.197176 -118.349255 242 738ft 0kts
08-Oct-18 08:17 34.197176 -118.349255 242 738ft 0kts
08-Oct-18 08:18 34.197176 -118.349255 242 738ft 0kts
08-Oct-18 08:19 34.197176 -118.349255 242 738ft 0kts
08-Oct-18 08:20 34.197176 -118.349255 242 738ft 0kts
08-Oct-18 08:21 34.197115 -118.349496 259 738ft 5kts
08-Oct-18 08:22 34.197292 -118.353328 268 738ft 11kts
08-Oct-18 08:23 34.199903 -118.355716 346 738ft 20kts
08-Oct-18 08:24 34.206423 -118.357510 348 738ft 19kts
08-Oct-18 08:25 34.211280 -118.358838 339 738ft 11kts
08-Oct-18 08:26 34.211392 -118.358905 328 738ft 0kts
08-Oct-18 08:27 34.211587 -118.359087 316 738ft 7kts
08-Oct-18 08:28 34.198714 -118.356690 168 846ft 161kts
08-Oct-18 08:29 34.148312 -118.378206 221 4031ft 247kts
08-Oct-18 08:30 34.094687 -118.438192 239 3993ft 267kts
08-Oct-18 08:31 34.112803 -118.512881 335 7689ft 270kts
08-Oct-18 08:32 34.183873 -118.549448 338 11391ft 303kts
08-Oct-18 08:33 34.262465 -118.589022 338 15417ft 313kts
08-Oct-18 08:34 34.343114 -118.629735 338 19074ft 320kts
08-Oct-18 08:35 34.423652 -118.672182 336 22272ft 328kts
08-Oct-18 08:36 34.503033 -118.727959 332 25149ft 338kts
08-Oct-18 08:37 34.584894 -118.785949 332 27708ft 346kts
08-Oct-18 08:38 34.668680 -118.845407 332 29932ft 352kts
08-Oct-18 08:39 34.756726 -118.907928 331 29982ft 385kts
08-Oct-18 08:40 34.851996 -118.975779 331 29950ft 404kts
08-Oct-18 08:41 34.949494 -119.045453 331 29922ft 410kts
08-Oct-18 08:42 35.047207 -119.115499 331 29919ft 408kts
08-Oct-18 08:43 35.144127 -119.185139 331 29930ft 409kts
08-Oct-18 08:44 35.240964 -119.254906 331 29930ft 408kts
08-Oct-18 08:45 35.338356 -119.325271 331 29928ft 409kts
08-Oct-18 08:46 35.435865 -119.395934 331 29930ft 408kts
08-Oct-18 08:47 35.527625 -119.477725 319 29934ft 413kts
08-Oct-18 08:48 35.592765 -119.593246 292 29937ft 432kts
08-Oct-18 08:49 35.592071 -119.737199 273 29931ft 448kts
08-Oct-18 08:50 35.612916 -119.880784 289 29938ft 433kts
08-Oct-18 08:51 35.635762 -120.026489 286 29942ft 435kts
08-Oct-18 08:52 35.657399 -120.172834 286 29942ft 435kts
08-Oct-18 08:53 35.680206 -120.318096 293 29938ft 430kts
08-Oct-18 08:54 35.735905 -120.444358 308 29940ft 419kts
08-Oct-18 08:55 35.799434 -120.564215 308 29939ft 418kts
08-Oct-18 08:56 35.861236 -120.681268 307 29922ft 406kts
08-Oct-18 08:57 35.920718 -120.794606 307 29939ft 392kts
08-Oct-18 08:58 35.979845 -120.907420 308 29759ft 386kts
08-Oct-18 08:59 36.048819 -120.999577 325 27675ft 357kts
08-Oct-18 09:00 36.125545 -121.072702 325 25712ft 351kts
08-Oct-18 09:01 36.200594 -121.144288 325 23796ft 342kts
08-Oct-18 09:02 36.273903 -121.214375 325 21937ft 332kts
08-Oct-18 09:03 36.345444 -121.282919 325 20130ft 322kts
08-Oct-18 09:04 36.416710 -121.351449 325 17673ft 331kts
08-Oct-18 09:05 36.485506 -121.417957 326 15849ft 301kts
08-Oct-18 09:06 36.559613 -121.457017 344 14317ft 288kts
08-Oct-18 09:07 36.634577 -121.488196 343 12815ft 281kts
08-Oct-18 09:08 36.707561 -121.518993 344 11488ft 278kts
08-Oct-18 09:09 36.779547 -121.549505 344 10310ft 265kts
08-Oct-18 09:10 36.835703 -121.573375 345 9398ft 252kts
08-Oct-18 09:11 36.911577 -121.605618 344 8214ft 246kts
08-Oct-18 09:12 36.966714 -121.628955 343 7122ft 257kts
08-Oct-18 09:13 37.042865 -121.661300 342 5891ft 247kts
08-Oct-18 09:14 37.097171 -121.684426 341 4841ft 252kts
08-Oct-18 09:15 37.158131 -121.710802 336 4011ft 226kts
08-Oct-18 09:16 37.207059 -121.759934 321 3938ft 219kts
08-Oct-18 09:17 37.252115 -121.809000 319 2838ft 215kts
08-Oct-18 09:18 37.292005 -121.852570 317 1771ft 158kts
08-Oct-18 09:19 37.322439 -121.885829 317 969ft 133kts
08-Oct-18 09:20 37.348989 -121.914884 319 308ft 130kts
08-Oct-18 09:21 37.365326 -121.931258 24 70ft 0kts
08-Oct-18 09:22 37.367283 -121.928367 45 70ft 4kts
08-Oct-18 09:23 37.367483 -121.928095 47 70ft 0kts

Navigation Log

Ident Type
Flight plan parsing failed, navigation log unavailable